createdAt,value
2023-01-03T00:02:17.123Z,11.10
2023-01-03T00:05:03.408Z,11.00
2023-01-03T00:07:48.576Z,11.00
2023-01-03T00:10:34.016Z,10.90
2023-01-03T00:13:19.370Z,10.90
2023-01-03T00:16:05.119Z,10.90
2023-01-03T00:18:50.291Z,10.90
2023-01-03T00:21:36.122Z,10.80
2023-01-03T00:24:21.373Z,10.90
2023-01-03T00:27:06.934Z,10.90
2023-01-03T00:29:51.877Z,10.80
2023-01-03T00:32:37.487Z,10.70
2023-01-03T00:35:23.051Z,10.80
2023-01-03T00:38:08.096Z,10.90
2023-01-03T00:40:53.577Z,10.80
2023-01-03T00:43:40.214Z,10.90
2023-01-03T00:46:25.654Z,10.80
2023-01-03T00:49:11.520Z,10.90
2023-01-03T00:51:57.277Z,10.90
2023-01-03T00:54:42.486Z,11.00
2023-01-03T00:57:27.749Z,11.10
2023-01-03T01:00:13.538Z,11.00
2023-01-03T01:02:59.034Z,11.00
2023-01-03T01:05:44.328Z,10.90
2023-01-03T01:08:29.576Z,10.80
2023-01-03T01:11:16.106Z,10.80
2023-01-03T01:14:01.434Z,10.80
2023-01-03T01:16:58.646Z,10.90
2023-01-03T01:19:44.568Z,10.90
2023-01-03T01:22:29.915Z,10.90
2023-01-03T01:25:15.375Z,10.90
2023-01-03T01:28:00.737Z,10.90
2023-01-03T01:30:46.156Z,11.00
2023-01-03T01:33:33.778Z,10.90
2023-01-03T01:36:22.008Z,10.90
2023-01-03T01:39:14.023Z,10.90
2023-01-03T01:42:28.669Z,10.90
2023-01-03T01:45:16.042Z,10.90
2023-01-03T01:48:12.007Z,10.90
2023-01-03T01:50:58.151Z,10.90
2023-01-03T01:53:43.666Z,11.00
2023-01-03T01:56:34.064Z,11.00
2023-01-03T01:59:19.471Z,11.00
2023-01-03T02:02:05.621Z,11.00
2023-01-03T02:04:54.477Z,11.00
2023-01-03T02:07:40.142Z,11.00
2023-01-03T02:10:45.379Z,10.90
2023-01-03T02:13:55.288Z,11.00
2023-01-03T02:17:02.716Z,10.90
2023-01-03T02:19:53.976Z,10.90
2023-01-03T02:22:38.895Z,10.80
2023-01-03T02:25:59.949Z,10.80
2023-01-03T02:29:19.295Z,10.60
2023-01-03T02:32:15.389Z,10.50
2023-01-03T02:35:20.378Z,10.50
2023-01-03T02:38:29.270Z,10.50
2023-01-03T02:41:44.700Z,10.60
2023-01-03T02:44:35.975Z,10.50
2023-01-03T02:47:24.528Z,10.50
2023-01-03T02:50:12.863Z,10.50
2023-01-03T02:53:03.322Z,10.60
2023-01-03T02:55:51.508Z,10.60
2023-01-03T02:58:39.975Z,10.60
2023-01-03T03:01:26.968Z,10.50
2023-01-03T03:04:14.369Z,10.50
2023-01-03T03:07:27.783Z,10.50
2023-01-03T03:10:31.674Z,10.40
2023-01-03T03:13:31.388Z,10.40
2023-01-03T03:16:49.947Z,10.40
2023-01-03T03:19:55.711Z,10.50
2023-01-03T03:23:13.979Z,10.50
2023-01-03T03:26:04.212Z,10.50
2023-01-03T03:28:54.889Z,10.60
2023-01-03T03:31:44.188Z,10.50
2023-01-03T03:34:32.348Z,10.50
2023-01-03T03:37:22.740Z,10.50
2023-01-03T03:40:28.361Z,10.50
2023-01-03T03:43:54.049Z,10.60
2023-01-03T03:46:50.559Z,10.60
2023-01-03T03:49:44.039Z,10.50
2023-01-03T03:52:31.575Z,10.60
2023-01-03T03:55:21.822Z,10.60
2023-01-03T03:58:16.068Z,10.50
2023-01-03T04:01:02.647Z,10.50
2023-01-03T04:03:50.593Z,10.50
2023-01-03T04:06:42.836Z,10.50
2023-01-03T04:09:28.399Z,10.50
2023-01-03T04:12:13.508Z,10.60
2023-01-03T04:14:58.780Z,10.60
2023-01-03T04:17:44.457Z,10.60
2023-01-03T04:20:30.063Z,10.60
2023-01-03T04:23:15.608Z,10.70
2023-01-03T04:26:00.949Z,10.60
2023-01-03T04:28:46.484Z,10.60
2023-01-03T04:31:31.903Z,10.60
2023-01-03T04:34:17.240Z,10.60
2023-01-03T04:37:02.669Z,10.60
2023-01-03T04:39:47.962Z,10.50
2023-01-03T04:42:51.748Z,10.50
2023-01-03T04:45:37.161Z,10.50
2023-01-03T04:48:22.715Z,10.50
2023-01-03T04:51:08.468Z,10.50
2023-01-03T04:53:54.288Z,10.50
2023-01-03T04:56:39.641Z,10.50
2023-01-03T04:59:25.071Z,10.40
2023-01-03T05:02:10.594Z,10.50
2023-01-03T05:04:56.009Z,10.40
2023-01-03T05:07:41.282Z,10.40
2023-01-03T05:10:26.772Z,10.50
2023-01-03T05:13:12.083Z,10.50
2023-01-03T05:15:57.772Z,10.50
2023-01-03T05:18:43.425Z,10.50
2023-01-03T05:21:47.364Z,10.50
2023-01-03T05:24:51.490Z,10.50
2023-01-03T05:27:36.923Z,10.50
2023-01-03T05:30:22.290Z,10.50
2023-01-03T05:33:07.525Z,10.50
2023-01-03T05:35:52.873Z,10.50
2023-01-03T05:38:38.999Z,10.40
2023-01-03T05:41:42.541Z,10.50
2023-01-03T05:44:30.460Z,10.50
2023-01-03T05:47:15.798Z,10.50
2023-01-03T05:50:01.308Z,10.40
2023-01-03T05:52:47.048Z,10.50
2023-01-03T05:55:32.565Z,10.40
2023-01-03T05:58:17.854Z,10.40
2023-01-03T06:01:11.544Z,10.40
2023-01-03T06:03:56.837Z,10.30
2023-01-03T06:06:42.093Z,10.30
2023-01-03T06:09:27.313Z,10.30
2023-01-03T06:12:13.117Z,10.20
2023-01-03T06:14:58.539Z,10.30
2023-01-03T06:17:57.882Z,10.30
2023-01-03T06:20:43.435Z,10.20
2023-01-03T06:23:28.775Z,10.20
2023-01-03T06:26:15.510Z,10.20
2023-01-03T06:29:00.625Z,10.20
2023-01-03T06:31:45.950Z,10.20
2023-01-03T06:34:31.394Z,10.20
2023-01-03T06:37:17.308Z,10.20
2023-01-03T06:40:02.646Z,10.20
2023-01-03T06:42:48.060Z,10.20
2023-01-03T06:45:52.016Z,10.10
2023-01-03T06:48:55.813Z,10.10
2023-01-03T06:51:59.753Z,10.10
2023-01-03T06:54:45.141Z,10.10
2023-01-03T06:57:30.442Z,10.20
2023-01-03T07:00:16.626Z,10.20
2023-01-03T07:03:07.107Z,10.20
2023-01-03T07:05:56.090Z,10.20
2023-01-03T07:08:47.924Z,10.20
2023-01-03T07:11:34.604Z,10.20
2023-01-03T07:14:19.970Z,10.20
2023-01-03T07:17:05.062Z,10.20
2023-01-03T07:19:50.468Z,10.10
2023-01-03T07:22:35.760Z,10.00
2023-01-03T07:25:21.331Z,10.00
2023-01-03T07:28:10.128Z,10.00
2023-01-03T07:31:01.800Z,10.00
2023-01-03T07:33:46.910Z,10.00
2023-01-03T07:36:32.235Z,10.00
2023-01-03T07:39:17.611Z,10.10
2023-01-03T07:42:21.555Z,10.00
2023-01-03T07:45:07.637Z,10.00
2023-01-03T07:47:52.955Z,10.00
2023-01-03T07:50:38.597Z,10.00
2023-01-03T07:53:23.967Z,10.10
2023-01-03T07:56:19.190Z,10.00
2023-01-03T07:59:04.523Z,10.10
2023-01-03T08:01:50.023Z,10.10
2023-01-03T08:04:35.546Z,10.10
2023-01-03T08:07:20.607Z,10.10
2023-01-03T08:10:24.340Z,10.10
2023-01-03T08:13:19.302Z,10.10
2023-01-03T08:16:05.748Z,10.00
2023-01-03T08:18:51.484Z,10.00
2023-01-03T08:21:37.207Z,10.00
2023-01-03T08:24:22.760Z,10.10
2023-01-03T08:27:08.089Z,10.10
2023-01-03T08:29:53.564Z,10.20
2023-01-03T08:33:01.227Z,10.10
2023-01-03T08:35:59.820Z,10.10
2023-01-03T08:38:58.981Z,10.10
2023-01-03T08:41:54.061Z,10.10
2023-01-03T08:44:48.848Z,10.00
2023-01-03T08:47:47.039Z,10.00
2023-01-03T08:50:41.753Z,10.00
2023-01-03T08:53:40.252Z,10.00
2023-01-03T08:56:36.265Z,10.10
2023-01-03T08:59:27.534Z,10.10
2023-01-03T09:02:13.178Z,10.20
2023-01-03T09:05:03.676Z,10.10
2023-01-03T09:08:16.033Z,10.20
2023-01-03T09:11:31.408Z,10.20
2023-01-03T09:17:36.177Z,10.10
2023-01-03T09:20:28.053Z,10.20
2023-01-03T09:23:17.401Z,10.30
2023-01-03T09:26:04.877Z,10.30
2023-01-03T09:29:00.059Z,10.50
2023-01-03T09:31:46.006Z,10.50
2023-01-03T09:34:31.289Z,10.40
2023-01-03T09:37:16.705Z,10.40
2023-01-03T09:40:02.567Z,10.40
2023-01-03T09:43:06.425Z,10.20
2023-01-03T09:45:55.216Z,10.30
2023-01-03T09:48:41.571Z,10.40
2023-01-03T09:51:53.416Z,10.40
2023-01-03T09:55:04.246Z,10.30
2023-01-03T09:58:08.165Z,10.20
2023-01-03T10:01:14.155Z,10.30
2023-01-03T10:04:11.097Z,10.30
2023-01-03T10:07:30.205Z,10.10
2023-01-03T10:10:36.788Z,10.20
2023-01-03T10:13:46.939Z,10.20
2023-01-03T10:16:56.706Z,10.20
2023-01-03T10:20:14.587Z,10.40
2023-01-03T10:23:00.573Z,10.20
2023-01-03T10:25:47.271Z,10.10
2023-01-03T10:28:38.496Z,10.10
2023-01-03T10:31:34.474Z,10.10
2023-01-03T10:34:19.764Z,9.90
2023-01-03T10:37:17.948Z,9.90
2023-01-03T10:40:04.754Z,9.80
2023-01-03T10:42:50.443Z,9.90
2023-01-03T10:45:53.813Z,10.00
2023-01-03T10:52:09.997Z,9.90
2023-01-03T10:55:13.087Z,10.20
2023-01-03T10:58:01.928Z,10.50
2023-01-03T11:00:47.093Z,10.80
2023-01-03T11:03:32.425Z,10.90
2023-01-03T11:06:17.699Z,11.00
2023-01-03T11:09:09.553Z,10.90
2023-01-03T11:12:03.110Z,10.70
2023-01-03T11:14:55.929Z,10.60
2023-01-03T11:17:59.968Z,10.40
2023-01-03T11:21:07.808Z,10.50
2023-01-03T11:24:24.487Z,10.70
2023-01-03T11:27:24.815Z,10.70
2023-01-03T11:30:52.718Z,10.70
2023-01-03T11:33:40.728Z,10.80
2023-01-03T11:37:08.070Z,11.20
2023-01-03T11:40:07.759Z,11.20
2023-01-03T11:43:30.899Z,10.90
2023-01-03T11:46:40.457Z,10.90
2023-01-03T11:49:55.631Z,11.00
2023-01-03T11:52:53.076Z,11.10
2023-01-03T11:55:52.367Z,11.40
2023-01-03T11:58:40.507Z,11.60
2023-01-03T12:02:10.025Z,11.80
2023-01-03T12:05:52.977Z,11.80
2023-01-03T12:08:41.254Z,11.80
2023-01-03T12:11:40.132Z,11.80
2023-01-03T12:15:00.636Z,11.50
2023-01-03T12:18:01.240Z,11.50
2023-01-03T12:20:58.313Z,11.40
2023-01-03T12:23:56.072Z,11.50
2023-01-03T12:26:43.441Z,11.80
2023-01-03T12:29:43.858Z,11.70
2023-01-03T12:32:35.379Z,11.50
2023-01-03T12:35:38.822Z,11.40
2023-01-03T12:38:30.636Z,11.20
2023-01-03T12:41:38.277Z,11.00
2023-01-03T12:44:42.713Z,10.80
2023-01-03T12:48:04.474Z,10.80
2023-01-03T12:50:51.867Z,10.90
2023-01-03T12:53:51.024Z,11.00
2023-01-03T12:56:46.737Z,11.10
2023-01-03T13:00:17.684Z,11.30
2023-01-03T13:03:15.029Z,11.40
2023-01-03T13:06:16.170Z,11.50
2023-01-03T13:09:04.356Z,11.40
2023-01-03T13:11:55.971Z,11.40
2023-01-03T13:15:05.815Z,11.40
2023-01-03T13:17:51.077Z,11.30
2023-01-03T13:20:36.651Z,11.40
2023-01-03T13:23:32.842Z,11.50
2023-01-03T13:26:26.942Z,11.60
2023-01-03T13:29:33.966Z,11.60
2023-01-03T13:32:21.993Z,11.70
2023-01-03T13:35:16.680Z,11.50
2023-01-03T13:38:35.797Z,11.30
2023-01-03T13:41:35.471Z,11.50
2023-01-03T13:44:23.383Z,11.80
2023-01-03T13:47:35.303Z,12.10
2023-01-03T13:50:33.946Z,12.10
2023-01-03T13:53:18.941Z,12.20
2023-01-03T13:56:16.329Z,12.10
2023-01-03T13:59:13.745Z,12.20
2023-01-03T14:02:23.234Z,12.20
2023-01-03T14:05:26.716Z,12.60
2023-01-03T14:08:35.213Z,12.90
2023-01-03T14:11:33.294Z,13.20
2023-01-03T14:14:22.216Z,13.50
2023-01-03T14:17:23.105Z,13.60
2023-01-03T14:20:13.309Z,13.50
2023-01-03T14:23:31.245Z,13.60
2023-01-03T14:26:15.836Z,13.60
2023-01-03T14:29:01.767Z,13.80
2023-01-03T14:31:55.391Z,14.00
2023-01-03T14:34:41.819Z,14.00
2023-01-03T14:37:27.759Z,14.00
2023-01-03T14:40:19.685Z,14.10
2023-01-03T14:43:05.206Z,14.10
2023-01-03T14:45:59.767Z,14.10
2023-01-03T14:48:46.890Z,14.10
2023-01-03T14:51:33.423Z,14.10
2023-01-03T14:54:20.236Z,14.10
2023-01-03T14:57:05.253Z,14.00
2023-01-03T14:59:51.699Z,13.90
2023-01-03T15:02:39.087Z,13.60
2023-01-03T15:05:32.037Z,13.40
2023-01-03T15:08:25.913Z,13.20
2023-01-03T15:11:13.701Z,13.00
2023-01-03T15:14:05.516Z,12.80
2023-01-03T15:16:51.903Z,12.70
2023-01-03T15:19:48.337Z,12.60
2023-01-03T15:22:40.556Z,12.60
2023-01-03T15:25:34.893Z,12.50
2023-01-03T15:28:29.001Z,12.30
2023-01-03T15:31:25.160Z,12.20
2023-01-03T15:34:28.725Z,12.20
2023-01-03T15:37:16.576Z,12.10
2023-01-03T15:40:05.457Z,12.00
2023-01-03T15:43:09.586Z,11.80
2023-01-03T15:46:11.200Z,11.70
2023-01-03T15:48:57.205Z,11.60
2023-01-03T15:51:42.271Z,11.50
2023-01-03T15:54:27.757Z,11.40
2023-01-03T15:57:21.820Z,11.40
2023-01-03T16:00:11.537Z,11.40
2023-01-03T16:02:56.745Z,11.30
2023-01-03T16:05:41.935Z,11.20
2023-01-03T16:08:34.908Z,11.10
2023-01-03T16:11:31.383Z,11.10
2023-01-03T16:14:22.018Z,11.20
2023-01-03T16:17:08.954Z,11.10
2023-01-03T16:19:55.372Z,11.10
2023-01-03T16:22:52.429Z,11.00
2023-01-03T16:25:43.038Z,11.00
2023-01-03T16:28:28.609Z,10.90
2023-01-03T16:31:31.993Z,10.90
2023-01-03T16:34:24.045Z,10.90
2023-01-03T16:37:11.655Z,10.90
2023-01-03T16:39:58.391Z,10.90
2023-01-03T16:42:43.740Z,10.80
2023-01-03T16:45:29.132Z,10.80
2023-01-03T16:48:20.908Z,10.80
2023-01-03T16:51:06.613Z,10.80
2023-01-03T16:53:53.621Z,10.80
2023-01-03T16:56:39.037Z,10.80
2023-01-03T16:59:24.563Z,10.60
2023-01-03T17:02:10.266Z,10.60
2023-01-03T17:04:55.460Z,10.50
2023-01-03T17:07:43.417Z,10.60
2023-01-03T17:10:33.251Z,10.60
2023-01-03T17:13:32.679Z,10.60
2023-01-03T17:16:22.686Z,10.50
2023-01-03T17:20:01.927Z,10.50
2023-01-03T17:22:29.055Z,10.50
2023-01-03T17:25:14.510Z,10.50
2023-01-03T17:28:00.196Z,10.40
2023-01-03T17:30:46.053Z,10.40
2023-01-03T17:33:34.240Z,10.30
2023-01-03T17:36:29.443Z,10.30
2023-01-03T17:39:14.854Z,10.30
2023-01-03T17:42:12.519Z,10.30
2023-01-03T17:45:16.130Z,10.30
2023-01-03T17:48:19.940Z,10.30
2023-01-03T17:51:05.499Z,10.30
2023-01-03T17:53:51.906Z,10.30
2023-01-03T17:56:37.272Z,10.30
2023-01-03T17:59:22.679Z,10.30
2023-01-03T18:02:20.190Z,10.30
2023-01-03T18:05:17.370Z,10.30
2023-01-03T18:08:14.435Z,10.30
2023-01-03T18:10:59.710Z,10.30
2023-01-03T18:13:46.218Z,10.20
2023-01-03T18:16:31.835Z,10.20
2023-01-03T18:19:17.110Z,10.10
2023-01-03T18:22:02.703Z,10.10
2023-01-03T18:24:48.197Z,10.00
2023-01-03T18:27:33.728Z,9.90
2023-01-03T18:30:19.255Z,9.90
2023-01-03T18:33:04.915Z,10.00
2023-01-03T18:35:52.647Z,9.90
2023-01-03T18:38:41.103Z,9.90
2023-01-03T18:41:29.724Z,9.80
2023-01-03T18:44:20.900Z,9.70
2023-01-03T18:47:10.185Z,9.70
2023-01-03T18:49:55.789Z,9.70
2023-01-03T18:52:41.413Z,9.70
2023-01-03T18:55:30.153Z,9.70
2023-01-03T18:58:31.849Z,9.70
2023-01-03T19:01:17.652Z,9.70
2023-01-03T19:04:02.980Z,9.70
2023-01-03T19:06:51.888Z,9.70
2023-01-03T19:09:38.161Z,9.80
2023-01-03T19:12:23.709Z,9.70
2023-01-03T19:15:17.231Z,9.80
2023-01-03T19:18:03.920Z,9.80
2023-01-03T19:20:50.479Z,9.70
2023-01-03T19:23:35.824Z,9.60
2023-01-03T19:26:29.608Z,9.50
2023-01-03T19:29:31.937Z,9.40
2023-01-03T19:32:26.102Z,9.40
2023-01-03T19:35:15.640Z,9.30
2023-01-03T19:38:00.839Z,9.30
2023-01-03T19:40:46.452Z,9.30
2023-01-03T19:43:32.964Z,9.30
2023-01-03T19:46:18.627Z,9.40
2023-01-03T19:49:05.660Z,9.50
2023-01-03T19:51:50.916Z,9.50
2023-01-03T19:54:36.107Z,9.50
2023-01-03T19:57:24.866Z,9.50
2023-01-03T20:00:18.615Z,9.60
2023-01-03T20:03:06.748Z,9.50
2023-01-03T20:05:52.330Z,9.50
2023-01-03T20:08:37.587Z,9.50
2023-01-03T20:11:23.381Z,9.50
2023-01-03T20:14:28.756Z,9.50
2023-01-03T20:17:25.723Z,9.60
2023-01-03T20:20:12.973Z,9.50
2023-01-03T20:23:11.675Z,9.40
2023-01-03T20:25:56.946Z,9.40
2023-01-03T20:28:42.311Z,9.30
2023-01-03T20:31:27.971Z,9.30
2023-01-03T20:34:12.999Z,9.30
2023-01-03T20:37:01.761Z,9.30
2023-01-03T20:39:46.973Z,9.20
2023-01-03T20:42:32.376Z,9.20
2023-01-03T20:45:18.379Z,9.10
2023-01-03T20:48:03.707Z,9.00
2023-01-03T20:50:49.052Z,9.00
2023-01-03T20:53:37.382Z,9.00
2023-01-03T20:56:26.782Z,9.10
2023-01-03T20:59:19.759Z,9.10
2023-01-03T21:02:04.820Z,9.20
2023-01-03T21:04:50.766Z,9.10
2023-01-03T21:07:54.239Z,9.00
2023-01-03T21:10:42.255Z,9.00
2023-01-03T21:13:27.627Z,8.90
2023-01-03T21:16:33.510Z,8.80
2023-01-03T21:19:20.818Z,8.80
2023-01-03T21:22:16.991Z,8.80
2023-01-03T21:25:02.052Z,8.60
2023-01-03T21:27:48.051Z,8.60
2023-01-03T21:30:33.479Z,8.50
2023-01-03T21:33:19.116Z,8.60
2023-01-03T21:36:04.506Z,8.40
2023-01-03T21:38:50.247Z,8.50
2023-01-03T21:41:56.215Z,8.40
2023-01-03T21:44:41.436Z,8.40
2023-01-03T21:47:26.718Z,8.30
2023-01-03T21:50:12.180Z,8.30
2023-01-03T21:52:58.182Z,8.30
2023-01-03T21:55:44.732Z,8.20
2023-01-03T21:58:29.887Z,8.40
2023-01-03T22:01:23.271Z,8.40
2023-01-03T22:04:17.806Z,8.50
2023-01-03T22:07:03.042Z,8.50
2023-01-03T22:10:06.894Z,8.50
2023-01-03T22:12:53.966Z,8.60
2023-01-03T22:15:39.405Z,8.60
2023-01-03T22:18:24.795Z,8.60
2023-01-03T22:21:11.363Z,8.40
2023-01-03T22:23:56.871Z,8.20
2023-01-03T22:26:42.344Z,8.20
2023-01-03T22:29:27.831Z,8.00
2023-01-03T22:32:13.402Z,8.00
2023-01-03T22:34:58.891Z,7.90
2023-01-03T22:37:44.702Z,7.80
2023-01-03T22:40:30.003Z,7.80
2023-01-03T22:43:15.378Z,7.70
2023-01-03T22:46:01.081Z,7.70
2023-01-03T22:48:46.636Z,7.70
2023-01-03T22:51:32.100Z,7.80
2023-01-03T22:54:17.462Z,7.90
2023-01-03T22:57:03.454Z,7.90
2023-01-03T22:59:48.634Z,7.90
2023-01-03T23:02:40.864Z,7.90
2023-01-03T23:05:27.104Z,8.00
2023-01-03T23:08:12.568Z,8.00
2023-01-03T23:11:33.166Z,7.90
2023-01-03T23:14:22.329Z,7.80
2023-01-03T23:17:25.941Z,7.90
2023-01-03T23:20:11.635Z,7.80
2023-01-03T23:22:59.914Z,7.60
2023-01-03T23:25:45.185Z,7.60
2023-01-03T23:28:31.479Z,7.60
2023-01-03T23:31:16.505Z,7.50
2023-01-03T23:34:02.155Z,7.60
2023-01-03T23:36:47.661Z,7.70
2023-01-03T23:39:32.730Z,7.90
2023-01-03T23:42:18.244Z,8.00
2023-01-03T23:45:04.585Z,8.10
2023-01-03T23:47:51.730Z,8.10
2023-01-03T23:50:37.182Z,8.10
2023-01-03T23:53:22.512Z,8.10
2023-01-03T23:56:11.219Z,8.10
2023-01-03T23:58:56.335Z,8.10
